Terminal Aerodrome Forecast
Issued by NWS Jackson, MS

Home | Current Version | Previous Version | Text Only | Print | Product List | Glossary On
Versions: 1 2 3 4 5 6 7 8 9 10 11 12 13 14 15 16 17 18 19 20 21 22
000
FTUS44 KJAN 030547
TAFJAN
TAF
KJAN 030547Z 0306/0406 36004KT P6SM OVC015
     FM031000 34003KT 6SM BR BKN003 OVC012
     FM031400 35004KT P6SM OVC015
     FM031800 35005KT P6SM SCT015 OVC025
     FM032100 34008KT P6SM OVC050=

USA.gov is the U.S. government's official web portal to all federal, state and local government web resources and services.